sensor_id;sensor_type;location;lat;lon;timestamp;P1;durP1;ratioP1;P2;durP2;ratioP2
18659;SDS011;9459;50.254;19.014;2023-04-01T00:01:09;9.68;;;4.75;;
18659;SDS011;9459;50.254;19.014;2023-04-01T00:03:38;10.65;;;4.22;;
18659;SDS011;9459;50.254;19.014;2023-04-01T00:06:09;7.53;;;4.40;;
18659;SDS011;9459;50.254;19.014;2023-04-01T00:08:37;9.00;;;4.38;;
18659;SDS011;9459;50.254;19.014;2023-04-01T00:11:07;6.43;;;4.40;;
18659;SDS011;9459;50.254;19.014;2023-04-01T00:13:36;7.32;;;4.43;;
18659;SDS011;9459;50.254;19.014;2023-04-01T00:16:05;6.45;;;4.00;;
18659;SDS011;9459;50.254;19.014;2023-04-01T00:18:45;6.88;;;3.78;;
18659;SDS011;9459;50.254;19.014;2023-04-01T00:21:16;8.70;;;4.50;;
18659;SDS011;9459;50.254;19.014;2023-04-01T00:23:45;6.63;;;4.22;;
18659;SDS011;9459;50.254;19.014;2023-04-01T00:26:14;9.73;;;5.30;;
18659;SDS011;9459;50.254;19.014;2023-04-01T00:31:14;6.90;;;4.43;;
18659;SDS011;9459;50.254;19.014;2023-04-01T00:33:42;7.25;;;4.60;;
18659;SDS011;9459;50.254;19.014;2023-04-01T00:36:12;7.30;;;4.47;;
18659;SDS011;9459;50.254;19.014;2023-04-01T00:38:43;8.77;;;3.80;;
18659;SDS011;9459;50.254;19.014;2023-04-01T00:41:13;6.90;;;3.88;;
18659;SDS011;9459;50.254;19.014;2023-04-01T00:43:45;6.55;;;4.13;;
18659;SDS011;9459;50.254;19.014;2023-04-01T00:46:15;6.70;;;4.07;;
18659;SDS011;9459;50.254;19.014;2023-04-01T00:48:45;6.70;;;3.92;;
18659;SDS011;9459;50.254;19.014;2023-04-01T00:51:17;12.43;;;7.35;;
18659;SDS011;9459;50.254;19.014;2023-04-01T00:53:49;6.35;;;3.83;;
18659;SDS011;9459;50.254;19.014;2023-04-01T00:56:20;9.45;;;3.75;;
18659;SDS011;9459;50.254;19.014;2023-04-01T00:58:51;7.22;;;3.90;;
18659;SDS011;9459;50.254;19.014;2023-04-01T01:01:22;6.75;;;3.88;;
18659;SDS011;9459;50.254;19.014;2023-04-01T01:03:52;7.47;;;3.97;;
18659;SDS011;9459;50.254;19.014;2023-04-01T01:06:24;8.20;;;4.05;;
18659;SDS011;9459;50.254;19.014;2023-04-01T01:09:07;7.65;;;3.85;;
18659;SDS011;9459;50.254;19.014;2023-04-01T01:14:17;6.50;;;3.55;;
18659;SDS011;9459;50.254;19.014;2023-04-01T01:16:53;6.05;;;3.35;;
18659;SDS011;9459;50.254;19.014;2023-04-01T01:19:43;8.18;;;3.80;;
18659;SDS011;9459;50.254;19.014;2023-04-01T01:22:29;7.53;;;3.70;;
18659;SDS011;9459;50.254;19.014;2023-04-01T01:25:17;7.35;;;4.05;;
18659;SDS011;9459;50.254;19.014;2023-04-01T01:27:55;8.35;;;4.25;;
18659;SDS011;9459;50.254;19.014;2023-04-01T01:30:31;8.82;;;4.07;;
18659;SDS011;9459;50.254;19.014;2023-04-01T01:35:58;9.50;;;5.80;;
18659;SDS011;9459;50.254;19.014;2023-04-01T01:38:28;9.98;;;5.18;;
18659;SDS011;9459;50.254;19.014;2023-04-01T01:40:59;9.13;;;4.93;;
18659;SDS011;9459;50.254;19.014;2023-04-01T01:43:30;7.85;;;4.97;;
18659;SDS011;9459;50.254;19.014;2023-04-01T01:46:00;8.27;;;4.47;;
18659;SDS011;9459;50.254;19.014;2023-04-01T01:48:33;6.25;;;4.07;;
18659;SDS011;9459;50.254;19.014;2023-04-01T01:51:04;7.28;;;4.63;;
18659;SDS011;9459;50.254;19.014;2023-04-01T01:53:34;6.53;;;3.75;;
18659;SDS011;9459;50.254;19.014;2023-04-01T01:56:03;5.32;;;3.85;;
18659;SDS011;9459;50.254;19.014;2023-04-01T01:58:33;6.85;;;4.38;;
18659;SDS011;9459;50.254;19.014;2023-04-01T02:01:07;7.93;;;4.32;;
18659;SDS011;9459;50.254;19.014;2023-04-01T02:03:39;7.32;;;3.78;;
18659;SDS011;9459;50.254;19.014;2023-04-01T02:06:11;5.78;;;3.78;;
18659;SDS011;9459;50.254;19.014;2023-04-01T02:08:42;7.68;;;3.72;;
18659;SDS011;9459;50.254;19.014;2023-04-01T02:11:15;8.30;;;4.43;;
18659;SDS011;9459;50.254;19.014;2023-04-01T02:13:47;6.28;;;4.50;;
18659;SDS011;9459;50.254;19.014;2023-04-01T02:16:19;5.35;;;3.75;;
18659;SDS011;9459;50.254;19.014;2023-04-01T02:18:50;6.95;;;4.63;;
18659;SDS011;9459;50.254;19.014;2023-04-01T02:21:22;7.85;;;4.03;;
18659;SDS011;9459;50.254;19.014;2023-04-01T02:23:52;7.03;;;4.80;;
18659;SDS011;9459;50.254;19.014;2023-04-01T02:26:22;6.65;;;4.68;;
18659;SDS011;9459;50.254;19.014;2023-04-01T02:28:52;7.07;;;4.68;;
18659;SDS011;9459;50.254;19.014;2023-04-01T02:31:21;8.45;;;4.50;;
18659;SDS011;9459;50.254;19.014;2023-04-01T02:33:50;7.50;;;4.72;;
18659;SDS011;9459;50.254;19.014;2023-04-01T02:36:18;7.95;;;5.35;;
18659;SDS011;9459;50.254;19.014;2023-04-01T02:38:49;10.00;;;6.00;;
18659;SDS011;9459;50.254;19.014;2023-04-01T02:41:18;7.38;;;5.57;;
18659;SDS011;9459;50.254;19.014;2023-04-01T02:43:47;7.28;;;4.93;;
18659;SDS011;9459;50.254;19.014;2023-04-01T02:46:16;8.50;;;4.95;;
18659;SDS011;9459;50.254;19.014;2023-04-01T02:48:45;8.82;;;5.82;;
18659;SDS011;9459;50.254;19.014;2023-04-01T02:51:13;11.02;;;6.53;;
18659;SDS011;9459;50.254;19.014;2023-04-01T02:53:45;9.60;;;6.37;;
18659;SDS011;9459;50.254;19.014;2023-04-01T02:56:14;7.97;;;6.00;;
18659;SDS011;9459;50.254;19.014;2023-04-01T02:58:42;7.55;;;5.28;;
18659;SDS011;9459;50.254;19.014;2023-04-01T03:01:11;7.65;;;4.55;;
18659;SDS011;9459;50.254;19.014;2023-04-01T03:03:39;7.55;;;4.82;;
18659;SDS011;9459;50.254;19.014;2023-04-01T03:06:08;6.43;;;4.47;;
18659;SDS011;9459;50.254;19.014;2023-04-01T03:08:37;6.53;;;4.32;;
18659;SDS011;9459;50.254;19.014;2023-04-01T03:11:08;7.05;;;4.55;;
18659;SDS011;9459;50.254;19.014;2023-04-01T03:13:37;6.38;;;4.10;;
18659;SDS011;9459;50.254;19.014;2023-04-01T03:16:06;6.57;;;4.28;;
18659;SDS011;9459;50.254;19.014;2023-04-01T03:18:35;7.55;;;4.50;;
18659;SDS011;9459;50.254;19.014;2023-04-01T03:21:13;6.40;;;4.82;;
18659;SDS011;9459;50.254;19.014;2023-04-01T03:23:43;5.90;;;4.40;;
18659;SDS011;9459;50.254;19.014;2023-04-01T03:26:12;7.80;;;4.15;;
18659;SDS011;9459;50.254;19.014;2023-04-01T03:28:41;6.47;;;3.80;;
18659;SDS011;9459;50.254;19.014;2023-04-01T03:31:10;5.63;;;3.38;;
18659;SDS011;9459;50.254;19.014;2023-04-01T03:33:39;6.90;;;3.20;;
18659;SDS011;9459;50.254;19.014;2023-04-01T03:36:07;7.68;;;3.38;;
18659;SDS011;9459;50.254;19.014;2023-04-01T03:38:39;6.28;;;2.78;;
18659;SDS011;9459;50.254;19.014;2023-04-01T03:41:12;6.55;;;3.60;;
18659;SDS011;9459;50.254;19.014;2023-04-01T03:43:41;5.57;;;3.15;;
18659;SDS011;9459;50.254;19.014;2023-04-01T03:46:09;6.35;;;3.40;;
18659;SDS011;9459;50.254;19.014;2023-04-01T03:48:38;5.47;;;3.70;;
18659;SDS011;9459;50.254;19.014;2023-04-01T03:51:07;5.38;;;2.90;;
18659;SDS011;9459;50.254;19.014;2023-04-01T03:53:36;5.45;;;3.35;;
18659;SDS011;9459;50.254;19.014;2023-04-01T03:56:05;5.05;;;3.20;;
18659;SDS011;9459;50.254;19.014;2023-04-01T03:58:35;5.15;;;2.92;;
18659;SDS011;9459;50.254;19.014;2023-04-01T04:01:12;4.70;;;3.00;;
18659;SDS011;9459;50.254;19.014;2023-04-01T04:03:45;4.47;;;2.97;;
18659;SDS011;9459;50.254;19.014;2023-04-01T04:06:16;6.95;;;3.28;;
18659;SDS011;9459;50.254;19.014;2023-04-01T04:08:46;4.88;;;2.75;;
18659;SDS011;9459;50.254;19.014;2023-04-01T04:11:14;4.90;;;2.97;;
18659;SDS011;9459;50.254;19.014;2023-04-01T04:13:44;6.45;;;3.10;;
18659;SDS011;9459;50.254;19.014;2023-04-01T04:16:14;5.45;;;3.28;;
18659;SDS011;9459;50.254;19.014;2023-04-01T04:18:43;5.15;;;2.67;;
18659;SDS011;9459;50.254;19.014;2023-04-01T04:21:13;5.88;;;3.60;;
18659;SDS011;9459;50.254;19.014;2023-04-01T04:23:42;5.28;;;3.75;;
18659;SDS011;9459;50.254;19.014;2023-04-01T04:26:12;5.90;;;3.65;;
18659;SDS011;9459;50.254;19.014;2023-04-01T04:28:42;8.77;;;3.92;;
18659;SDS011;9459;50.254;19.014;2023-04-01T04:31:11;7.10;;;4.72;;
18659;SDS011;9459;50.254;19.014;2023-04-01T04:33:40;6.53;;;4.47;;
18659;SDS011;9459;50.254;19.014;2023-04-01T04:36:09;7.45;;;3.95;;
18659;SDS011;9459;50.254;19.014;2023-04-01T04:38:37;8.35;;;4.72;;
18659;SDS011;9459;50.254;19.014;2023-04-01T04:41:08;6.60;;;4.97;;
18659;SDS011;9459;50.254;19.014;2023-04-01T04:43:38;7.35;;;4.53;;
18659;SDS011;9459;50.254;19.014;2023-04-01T04:46:07;5.97;;;4.47;;
18659;SDS011;9459;50.254;19.014;2023-04-01T04:48:37;7.03;;;5.07;;
18659;SDS011;9459;50.254;19.014;2023-04-01T04:51:06;6.72;;;5.20;;
18659;SDS011;9459;50.254;19.014;2023-04-01T04:53:34;7.45;;;5.57;;
18659;SDS011;9459;50.254;19.014;2023-04-01T04:56:02;7.75;;;5.68;;
18659;SDS011;9459;50.254;19.014;2023-04-01T04:58:31;9.15;;;5.55;;
18659;SDS011;9459;50.254;19.014;2023-04-01T05:01:05;6.28;;;4.50;;
18659;SDS011;9459;50.254;19.014;2023-04-01T05:03:34;6.22;;;4.38;;
18659;SDS011;9459;50.254;19.014;2023-04-01T05:06:04;7.32;;;4.78;;
18659;SDS011;9459;50.254;19.014;2023-04-01T05:08:33;8.27;;;4.88;;
18659;SDS011;9459;50.254;19.014;2023-04-01T05:11:02;7.03;;;5.40;;
18659;SDS011;9459;50.254;19.014;2023-04-01T05:13:31;7.75;;;5.03;;
18659;SDS011;9459;50.254;19.014;2023-04-01T05:15:59;9.23;;;5.70;;
18659;SDS011;9459;50.254;19.014;2023-04-01T05:18:28;8.30;;;5.97;;
18659;SDS011;9459;50.254;19.014;2023-04-01T05:20:56;9.55;;;5.00;;
18659;SDS011;9459;50.254;19.014;2023-04-01T05:23:26;9.90;;;6.05;;
18659;SDS011;9459;50.254;19.014;2023-04-01T05:25:55;10.02;;;6.10;;
18659;SDS011;9459;50.254;19.014;2023-04-01T05:28:24;10.82;;;6.60;;
18659;SDS011;9459;50.254;19.014;2023-04-01T05:30:52;8.23;;;5.55;;
18659;SDS011;9459;50.254;19.014;2023-04-01T05:33:21;7.25;;;5.32;;
18659;SDS011;9459;50.254;19.014;2023-04-01T05:35:49;7.10;;;5.10;;
18659;SDS011;9459;50.254;19.014;2023-04-01T05:38:18;6.40;;;3.72;;
18659;SDS011;9459;50.254;19.014;2023-04-01T05:40:48;10.45;;;5.45;;
18659;SDS011;9459;50.254;19.014;2023-04-01T05:43:17;6.93;;;4.60;;
18659;SDS011;9459;50.254;19.014;2023-04-01T05:45:45;6.95;;;4.07;;
18659;SDS011;9459;50.254;19.014;2023-04-01T05:48:14;5.40;;;3.50;;
18659;SDS011;9459;50.254;19.014;2023-04-01T05:50:42;5.85;;;3.83;;
18659;SDS011;9459;50.254;19.014;2023-04-01T05:53:11;8.50;;;3.50;;
18659;SDS011;9459;50.254;19.014;2023-04-01T05:55:39;4.97;;;3.17;;
18659;SDS011;9459;50.254;19.014;2023-04-01T05:58:09;5.70;;;3.15;;
18659;SDS011;9459;50.254;19.014;2023-04-01T06:00:37;5.65;;;3.40;;
18659;SDS011;9459;50.254;19.014;2023-04-01T06:03:06;7.43;;;3.60;;
18659;SDS011;9459;50.254;19.014;2023-04-01T06:05:38;6.10;;;3.65;;
18659;SDS011;9459;50.254;19.014;2023-04-01T06:08:09;5.57;;;3.30;;
18659;SDS011;9459;50.254;19.014;2023-04-01T06:13:14;5.55;;;2.85;;
18659;SDS011;9459;50.254;19.014;2023-04-01T06:15:48;5.35;;;3.50;;
18659;SDS011;9459;50.254;19.014;2023-04-01T06:21:18;9.98;;;3.92;;
18659;SDS011;9459;50.254;19.014;2023-04-01T06:24:08;7.68;;;3.80;;
18659;SDS011;9459;50.254;19.014;2023-04-01T06:26:55;9.75;;;4.10;;
18659;SDS011;9459;50.254;19.014;2023-04-01T06:32:22;6.85;;;3.30;;
18659;SDS011;9459;50.254;19.014;2023-04-01T06:35:11;5.60;;;3.33;;
18659;SDS011;9459;50.254;19.014;2023-04-01T06:37:52;6.22;;;3.10;;
18659;SDS011;9459;50.254;19.014;2023-04-01T06:41:11;5.45;;;3.45;;
18659;SDS011;9459;50.254;19.014;2023-04-01T06:43:51;7.80;;;2.80;;
18659;SDS011;9459;50.254;19.014;2023-04-01T06:46:29;6.63;;;3.08;;
18659;SDS011;9459;50.254;19.014;2023-04-01T06:49:04;7.03;;;4.32;;
18659;SDS011;9459;50.254;19.014;2023-04-01T06:51:41;6.93;;;4.10;;
18659;SDS011;9459;50.254;19.014;2023-04-01T06:54:16;7.18;;;3.85;;
18659;SDS011;9459;50.254;19.014;2023-04-01T06:59:17;8.57;;;4.35;;
18659;SDS011;9459;50.254;19.014;2023-04-01T07:01:49;4.53;;;3.60;;
18659;SDS011;9459;50.254;19.014;2023-04-01T07:04:20;8.07;;;4.50;;
18659;SDS011;9459;50.254;19.014;2023-04-01T07:06:52;8.63;;;5.15;;
18659;SDS011;9459;50.254;19.014;2023-04-01T07:09:22;5.97;;;4.20;;
18659;SDS011;9459;50.254;19.014;2023-04-01T07:11:53;6.85;;;4.28;;
18659;SDS011;9459;50.254;19.014;2023-04-01T07:14:25;5.95;;;3.90;;
18659;SDS011;9459;50.254;19.014;2023-04-01T07:16:59;8.38;;;4.55;;
18659;SDS011;9459;50.254;19.014;2023-04-01T07:19:31;7.00;;;4.28;;
18659;SDS011;9459;50.254;19.014;2023-04-01T07:22:03;6.43;;;4.15;;
18659;SDS011;9459;50.254;19.014;2023-04-01T07:24:34;4.85;;;3.83;;
18659;SDS011;9459;50.254;19.014;2023-04-01T07:27:05;8.45;;;4.50;;
18659;SDS011;9459;50.254;19.014;2023-04-01T07:29:36;8.07;;;4.32;;
18659;SDS011;9459;50.254;19.014;2023-04-01T07:32:16;6.88;;;4.18;;
18659;SDS011;9459;50.254;19.014;2023-04-01T07:34:54;7.30;;;4.35;;
18659;SDS011;9459;50.254;19.014;2023-04-01T07:37:30;8.75;;;5.10;;
18659;SDS011;9459;50.254;19.014;2023-04-01T07:40:06;10.52;;;7.28;;
18659;SDS011;9459;50.254;19.014;2023-04-01T07:42:45;8.75;;;5.43;;
18659;SDS011;9459;50.254;19.014;2023-04-01T07:45:22;11.07;;;5.50;;
18659;SDS011;9459;50.254;19.014;2023-04-01T07:47:58;6.72;;;4.60;;
18659;SDS011;9459;50.254;19.014;2023-04-01T07:50:35;8.32;;;5.18;;
18659;SDS011;9459;50.254;19.014;2023-04-01T07:53:08;10.10;;;5.28;;
18659;SDS011;9459;50.254;19.014;2023-04-01T07:55:44;6.85;;;4.30;;
18659;SDS011;9459;50.254;19.014;2023-04-01T07:58:16;6.85;;;4.82;;
18659;SDS011;9459;50.254;19.014;2023-04-01T08:00:48;6.43;;;4.68;;
18659;SDS011;9459;50.254;19.014;2023-04-01T08:03:24;9.13;;;4.40;;
18659;SDS011;9459;50.254;19.014;2023-04-01T08:05:59;8.50;;;4.70;;
18659;SDS011;9459;50.254;19.014;2023-04-01T08:08:32;7.78;;;4.25;;
18659;SDS011;9459;50.254;19.014;2023-04-01T08:11:08;6.00;;;3.95;;
18659;SDS011;9459;50.254;19.014;2023-04-01T08:13:44;8.68;;;4.18;;
18659;SDS011;9459;50.254;19.014;2023-04-01T08:16:18;7.07;;;4.30;;
18659;SDS011;9459;50.254;19.014;2023-04-01T08:18:52;7.35;;;4.82;;
18659;SDS011;9459;50.254;19.014;2023-04-01T08:21:25;6.82;;;4.00;;
18659;SDS011;9459;50.254;19.014;2023-04-01T08:23:56;6.68;;;3.97;;
18659;SDS011;9459;50.254;19.014;2023-04-01T08:26:28;8.18;;;4.15;;
18659;SDS011;9459;50.254;19.014;2023-04-01T08:29:02;5.00;;;3.47;;
18659;SDS011;9459;50.254;19.014;2023-04-01T08:31:34;6.32;;;3.33;;
18659;SDS011;9459;50.254;19.014;2023-04-01T08:34:11;6.90;;;3.15;;
18659;SDS011;9459;50.254;19.014;2023-04-01T08:36:43;6.35;;;3.40;;
18659;SDS011;9459;50.254;19.014;2023-04-01T08:39:16;4.07;;;2.72;;
18659;SDS011;9459;50.254;19.014;2023-04-01T08:44:40;5.38;;;2.85;;
18659;SDS011;9459;50.254;19.014;2023-04-01T08:47:42;5.03;;;2.70;;
18659;SDS011;9459;50.254;19.014;2023-04-01T08:50:24;6.22;;;3.50;;
18659;SDS011;9459;50.254;19.014;2023-04-01T08:53:00;6.95;;;4.35;;
18659;SDS011;9459;50.254;19.014;2023-04-01T08:55:36;6.38;;;4.35;;
18659;SDS011;9459;50.254;19.014;2023-04-01T08:58:22;6.18;;;3.22;;
18659;SDS011;9459;50.254;19.014;2023-04-01T09:01:05;4.85;;;3.22;;
18659;SDS011;9459;50.254;19.014;2023-04-01T09:12:19;6.35;;;3.70;;
18659;SDS011;9459;50.254;19.014;2023-04-01T09:15:06;4.88;;;3.13;;
18659;SDS011;9459;50.254;19.014;2023-04-01T09:20:36;5.10;;;3.00;;
18659;SDS011;9459;50.254;19.014;2023-04-01T09:23:18;5.35;;;3.05;;
18659;SDS011;9459;50.254;19.014;2023-04-01T09:26:02;3.78;;;2.42;;
18659;SDS011;9459;50.254;19.014;2023-04-01T09:28:52;3.17;;;2.25;;
18659;SDS011;9459;50.254;19.014;2023-04-01T09:31:25;3.55;;;2.10;;
18659;SDS011;9459;50.254;19.014;2023-04-01T09:37:15;2.45;;;2.00;;
18659;SDS011;9459;50.254;19.014;2023-04-01T09:39:51;4.32;;;2.17;;
18659;SDS011;9459;50.254;19.014;2023-04-01T09:42:42;2.88;;;2.35;;
18659;SDS011;9459;50.254;19.014;2023-04-01T09:48:08;6.28;;;3.13;;
18659;SDS011;9459;50.254;19.014;2023-04-01T09:51:00;4.90;;;3.13;;
18659;SDS011;9459;50.254;19.014;2023-04-01T09:59:33;2.00;;;1.38;;
18659;SDS011;9459;50.254;19.014;2023-04-01T10:08:18;2.05;;;1.40;;
18659;SDS011;9459;50.254;19.014;2023-04-01T10:11:07;2.22;;;1.45;;
18659;SDS011;9459;50.254;19.014;2023-04-01T10:13:58;3.42;;;2.28;;
18659;SDS011;9459;50.254;19.014;2023-04-01T10:22:52;2.40;;;1.10;;
18659;SDS011;9459;50.254;19.014;2023-04-01T10:25:53;1.77;;;1.33;;
18659;SDS011;9459;50.254;19.014;2023-04-01T10:34:51;2.05;;;1.52;;
18659;SDS011;9459;50.254;19.014;2023-04-01T10:37:38;4.00;;;2.50;;
18659;SDS011;9459;50.254;19.014;2023-04-01T10:40:21;3.00;;;2.10;;
18659;SDS011;9459;50.254;19.014;2023-04-01T10:46:42;3.38;;;1.63;;
18659;SDS011;9459;50.254;19.014;2023-04-01T10:55:46;3.53;;;1.85;;
18659;SDS011;9459;50.254;19.014;2023-04-01T10:58:41;4.20;;;2.35;;
18659;SDS011;9459;50.254;19.014;2023-04-01T11:01:37;3.13;;;1.92;;
18659;SDS011;9459;50.254;19.014;2023-04-01T11:08:14;2.50;;;1.92;;
18659;SDS011;9459;50.254;19.014;2023-04-01T11:14:14;2.88;;;1.42;;
18659;SDS011;9459;50.254;19.014;2023-04-01T11:23:05;3.15;;;2.10;;
18659;SDS011;9459;50.254;19.014;2023-04-01T11:28:50;3.28;;;2.10;;
18659;SDS011;9459;50.254;19.014;2023-04-01T11:31:35;2.20;;;1.38;;
18659;SDS011;9459;50.254;19.014;2023-04-01T11:34:15;3.13;;;1.42;;
18659;SDS011;9459;50.254;19.014;2023-04-01T11:36:53;4.55;;;3.50;;
18659;SDS011;9459;50.254;19.014;2023-04-01T11:39:31;2.53;;;1.60;;
18659;SDS011;9459;50.254;19.014;2023-04-01T11:42:09;3.45;;;1.70;;
18659;SDS011;9459;50.254;19.014;2023-04-01T11:44:50;2.40;;;1.40;;
18659;SDS011;9459;50.254;19.014;2023-04-01T11:47:28;2.13;;;1.50;;
18659;SDS011;9459;50.254;19.014;2023-04-01T11:50:20;4.28;;;2.72;;
18659;SDS011;9459;50.254;19.014;2023-04-01T11:53:08;3.85;;;2.33;;
18659;SDS011;9459;50.254;19.014;2023-04-01T11:55:46;3.08;;;2.17;;
18659;SDS011;9459;50.254;19.014;2023-04-01T11:58:28;3.65;;;2.22;;
18659;SDS011;9459;50.254;19.014;2023-04-01T12:04:17;7.10;;;4.18;;
18659;SDS011;9459;50.254;19.014;2023-04-01T12:07:05;10.00;;;5.05;;
18659;SDS011;9459;50.254;19.014;2023-04-01T12:09:44;4.88;;;2.50;;
18659;SDS011;9459;50.254;19.014;2023-04-01T12:12:23;3.75;;;2.30;;
18659;SDS011;9459;50.254;19.014;2023-04-01T12:15:02;3.92;;;1.98;;
18659;SDS011;9459;50.254;19.014;2023-04-01T12:17:43;3.30;;;1.90;;
18659;SDS011;9459;50.254;19.014;2023-04-01T12:20:29;4.53;;;2.90;;
18659;SDS011;9459;50.254;19.014;2023-04-01T12:23:11;4.28;;;2.55;;
18659;SDS011;9459;50.254;19.014;2023-04-01T12:25:59;5.18;;;3.15;;
18659;SDS011;9459;50.254;19.014;2023-04-01T12:28:41;4.45;;;2.85;;
18659;SDS011;9459;50.254;19.014;2023-04-01T12:31:19;5.20;;;3.20;;
18659;SDS011;9459;50.254;19.014;2023-04-01T12:34:13;4.57;;;2.88;;
18659;SDS011;9459;50.254;19.014;2023-04-01T12:36:59;5.28;;;3.60;;
18659;SDS011;9459;50.254;19.014;2023-04-01T12:39:44;4.22;;;3.03;;
18659;SDS011;9459;50.254;19.014;2023-04-01T12:45:27;6.32;;;3.78;;
18659;SDS011;9459;50.254;19.014;2023-04-01T12:51:07;12.25;;;7.22;;
18659;SDS011;9459;50.254;19.014;2023-04-01T12:54:34;4.80;;;2.78;;
18659;SDS011;9459;50.254;19.014;2023-04-01T13:00:27;7.85;;;5.07;;
18659;SDS011;9459;50.254;19.014;2023-04-01T13:03:09;2.92;;;2.20;;
18659;SDS011;9459;50.254;19.014;2023-04-01T13:05:55;4.15;;;2.83;;
18659;SDS011;9459;50.254;19.014;2023-04-01T13:08:38;3.33;;;2.28;;
18659;SDS011;9459;50.254;19.014;2023-04-01T13:11:16;4.15;;;3.20;;
18659;SDS011;9459;50.254;19.014;2023-04-01T13:14:05;3.13;;;2.35;;
18659;SDS011;9459;50.254;19.014;2023-04-01T13:17:00;5.57;;;3.85;;
18659;SDS011;9459;50.254;19.014;2023-04-01T13:19:37;3.60;;;2.60;;
18659;SDS011;9459;50.254;19.014;2023-04-01T13:22:23;4.95;;;3.10;;
18659;SDS011;9459;50.254;19.014;2023-04-01T13:24:59;12.02;;;7.50;;
18659;SDS011;9459;50.254;19.014;2023-04-01T13:27:34;4.22;;;2.70;;
18659;SDS011;9459;50.254;19.014;2023-04-01T13:30:18;5.10;;;3.60;;
18659;SDS011;9459;50.254;19.014;2023-04-01T13:32:58;8.25;;;6.22;;
18659;SDS011;9459;50.254;19.014;2023-04-01T13:35:33;5.75;;;3.78;;
18659;SDS011;9459;50.254;19.014;2023-04-01T13:38:14;6.20;;;2.92;;
18659;SDS011;9459;50.254;19.014;2023-04-01T13:41:09;7.13;;;4.18;;
18659;SDS011;9459;50.254;19.014;2023-04-01T13:43:58;5.88;;;3.60;;
18659;SDS011;9459;50.254;19.014;2023-04-01T13:46:41;5.57;;;3.42;;
18659;SDS011;9459;50.254;19.014;2023-04-01T13:52:31;3.42;;;2.00;;
18659;SDS011;9459;50.254;19.014;2023-04-01T14:01:17;22.05;;;11.10;;
18659;SDS011;9459;50.254;19.014;2023-04-01T14:03:56;10.43;;;5.40;;
18659;SDS011;9459;50.254;19.014;2023-04-01T14:06:44;7.15;;;3.03;;
18659;SDS011;9459;50.254;19.014;2023-04-01T14:09:44;4.60;;;3.38;;
18659;SDS011;9459;50.254;19.014;2023-04-01T14:12:25;4.70;;;2.90;;
18659;SDS011;9459;50.254;19.014;2023-04-01T14:15:05;5.28;;;3.50;;
18659;SDS011;9459;50.254;19.014;2023-04-01T14:17:56;6.72;;;3.17;;
18659;SDS011;9459;50.254;19.014;2023-04-01T14:20:33;8.70;;;3.28;;
18659;SDS011;9459;50.254;19.014;2023-04-01T14:26:15;6.82;;;3.47;;
18659;SDS011;9459;50.254;19.014;2023-04-01T14:29:02;5.93;;;3.55;;
18659;SDS011;9459;50.254;19.014;2023-04-01T14:31:43;5.32;;;3.40;;
18659;SDS011;9459;50.254;19.014;2023-04-01T14:34:24;4.95;;;3.85;;
18659;SDS011;9459;50.254;19.014;2023-04-01T14:37:07;5.72;;;3.67;;
18659;SDS011;9459;50.254;19.014;2023-04-01T14:39:45;6.90;;;4.45;;
18659;SDS011;9459;50.254;19.014;2023-04-01T14:42:28;6.23;;;4.17;;
18659;SDS011;9459;50.254;19.014;2023-04-01T14:45:23;5.20;;;3.55;;
18659;SDS011;9459;50.254;19.014;2023-04-01T14:48:05;4.05;;;3.00;;
18659;SDS011;9459;50.254;19.014;2023-04-01T14:50:50;9.52;;;7.07;;
18659;SDS011;9459;50.254;19.014;2023-04-01T14:53:26;11.43;;;5.75;;
18659;SDS011;9459;50.254;19.014;2023-04-01T14:56:01;7.95;;;5.68;;
18659;SDS011;9459;50.254;19.014;2023-04-01T14:58:40;11.27;;;6.50;;
18659;SDS011;9459;50.254;19.014;2023-04-01T15:01:23;12.27;;;7.88;;
18659;SDS011;9459;50.254;19.014;2023-04-01T15:04:03;23.75;;;12.68;;
18659;SDS011;9459;50.254;19.014;2023-04-01T15:06:45;15.82;;;9.52;;
18659;SDS011;9459;50.254;19.014;2023-04-01T15:09:32;10.35;;;6.90;;
18659;SDS011;9459;50.254;19.014;2023-04-01T15:12:15;13.48;;;8.02;;
18659;SDS011;9459;50.254;19.014;2023-04-01T15:14:57;12.13;;;7.85;;
18659;SDS011;9459;50.254;19.014;2023-04-01T15:17:46;11.07;;;8.00;;
18659;SDS011;9459;50.254;19.014;2023-04-01T15:20:33;10.32;;;7.80;;
18659;SDS011;9459;50.254;19.014;2023-04-01T15:23:21;7.80;;;5.13;;
18659;SDS011;9459;50.254;19.014;2023-04-01T15:29:01;7.82;;;5.20;;
18659;SDS011;9459;50.254;19.014;2023-04-01T15:31:38;6.20;;;4.50;;
18659;SDS011;9459;50.254;19.014;2023-04-01T15:37:02;9.20;;;6.03;;
18659;SDS011;9459;50.254;19.014;2023-04-01T15:39:43;12.70;;;7.68;;
18659;SDS011;9459;50.254;19.014;2023-04-01T15:42:23;13.43;;;6.93;;
18659;SDS011;9459;50.254;19.014;2023-04-01T15:45:07;13.30;;;7.93;;
18659;SDS011;9459;50.254;19.014;2023-04-01T15:47:45;18.30;;;12.23;;
18659;SDS011;9459;50.254;19.014;2023-04-01T15:56:13;16.83;;;11.88;;
18659;SDS011;9459;50.254;19.014;2023-04-01T15:58:48;23.33;;;14.43;;
18659;SDS011;9459;50.254;19.014;2023-04-01T16:01:24;17.85;;;13.30;;
18659;SDS011;9459;50.254;19.014;2023-04-01T16:03:57;11.05;;;7.47;;
18659;SDS011;9459;50.254;19.014;2023-04-01T16:06:47;12.20;;;6.68;;
18659;SDS011;9459;50.254;19.014;2023-04-01T16:12:18;11.02;;;7.70;;
18659;SDS011;9459;50.254;19.014;2023-04-01T16:14:55;12.20;;;7.82;;
18659;SDS011;9459;50.254;19.014;2023-04-01T16:20:41;9.15;;;6.53;;
18659;SDS011;9459;50.254;19.014;2023-04-01T16:23:13;10.77;;;7.60;;
18659;SDS011;9459;50.254;19.014;2023-04-01T16:25:49;10.68;;;7.57;;
18659;SDS011;9459;50.254;19.014;2023-04-01T16:28:24;14.93;;;10.02;;
18659;SDS011;9459;50.254;19.014;2023-04-01T16:30:58;13.35;;;9.90;;
18659;SDS011;9459;50.254;19.014;2023-04-01T16:33:38;8.73;;;7.50;;
18659;SDS011;9459;50.254;19.014;2023-04-01T16:36:10;14.27;;;9.10;;
18659;SDS011;9459;50.254;19.014;2023-04-01T16:38:43;13.60;;;9.55;;
18659;SDS011;9459;50.254;19.014;2023-04-01T16:41:17;15.13;;;11.00;;
18659;SDS011;9459;50.254;19.014;2023-04-01T16:43:50;12.10;;;8.15;;
18659;SDS011;9459;50.254;19.014;2023-04-01T16:46:31;12.88;;;9.20;;
18659;SDS011;9459;50.254;19.014;2023-04-01T16:49:17;10.68;;;6.75;;
18659;SDS011;9459;50.254;19.014;2023-04-01T16:51:53;13.30;;;7.75;;
18659;SDS011;9459;50.254;19.014;2023-04-01T16:54:28;11.75;;;7.05;;
18659;SDS011;9459;50.254;19.014;2023-04-01T16:57:02;11.57;;;6.97;;
18659;SDS011;9459;50.254;19.014;2023-04-01T16:59:46;11.18;;;6.95;;
18659;SDS011;9459;50.254;19.014;2023-04-01T17:02:28;16.75;;;10.18;;
18659;SDS011;9459;50.254;19.014;2023-04-01T17:05:04;62.42;;;32.08;;
18659;SDS011;9459;50.254;19.014;2023-04-01T17:07:38;71.93;;;36.67;;
18659;SDS011;9459;50.254;19.014;2023-04-01T17:10:23;63.60;;;34.08;;
18659;SDS011;9459;50.254;19.014;2023-04-01T17:13:18;28.17;;;16.50;;
18659;SDS011;9459;50.254;19.014;2023-04-01T17:16:04;13.43;;;9.07;;
18659;SDS011;9459;50.254;19.014;2023-04-01T17:19:01;21.70;;;11.75;;
18659;SDS011;9459;50.254;19.014;2023-04-01T17:21:43;16.55;;;9.38;;
18659;SDS011;9459;50.254;19.014;2023-04-01T17:24:21;20.15;;;12.23;;
18659;SDS011;9459;50.254;19.014;2023-04-01T17:26:58;17.05;;;10.77;;
18659;SDS011;9459;50.254;19.014;2023-04-01T17:29:33;15.00;;;9.10;;
18659;SDS011;9459;50.254;19.014;2023-04-01T17:32:18;17.35;;;10.00;;
18659;SDS011;9459;50.254;19.014;2023-04-01T17:34:55;18.02;;;9.80;;
18659;SDS011;9459;50.254;19.014;2023-04-01T17:37:30;17.05;;;9.90;;
18659;SDS011;9459;50.254;19.014;2023-04-01T17:40:20;17.15;;;11.35;;
18659;SDS011;9459;50.254;19.014;2023-04-01T17:42:57;17.45;;;10.85;;
18659;SDS011;9459;50.254;19.014;2023-04-01T17:45:33;17.35;;;10.70;;
18659;SDS011;9459;50.254;19.014;2023-04-01T17:48:11;16.30;;;9.60;;
18659;SDS011;9459;50.254;19.014;2023-04-01T17:50:54;18.23;;;10.75;;